createdAt,value
2024-04-19T00:00:38.298Z,7.63
2024-04-19T00:03:07.561Z,7.59
2024-04-19T00:05:35.973Z,7.60
2024-04-19T00:08:04.462Z,7.57
2024-04-19T00:10:32.748Z,7.60
2024-04-19T00:13:00.800Z,7.64
2024-04-19T00:15:28.895Z,7.69
2024-04-19T00:17:57.325Z,7.76
2024-04-19T00:20:26.563Z,7.87
2024-04-19T00:22:54.592Z,7.93
2024-04-19T00:25:22.650Z,8.01
2024-04-19T00:27:50.864Z,8.03
2024-04-19T00:30:19.238Z,8.12
2024-04-19T00:32:47.341Z,8.15
2024-04-19T00:35:21.165Z,8.16
2024-04-19T00:37:49.370Z,8.13
2024-04-19T00:40:17.791Z,8.11
2024-04-19T00:42:45.973Z,8.10
2024-04-19T00:45:38.770Z,8.06
2024-04-19T00:48:22.949Z,7.99
2024-04-19T00:50:52.714Z,7.86
2024-04-19T00:53:23.449Z,7.92
2024-04-19T00:55:51.776Z,7.90
2024-04-19T00:58:19.991Z,7.81
2024-04-19T01:00:48.124Z,7.75
2024-04-19T01:03:16.247Z,7.69
2024-04-19T01:05:44.268Z,7.56
2024-04-19T01:08:12.501Z,7.45
2024-04-19T01:10:40.074Z,7.40
2024-04-19T01:13:07.492Z,7.33
2024-04-19T01:15:37.286Z,7.26
2024-04-19T01:18:07.061Z,7.26
2024-04-19T01:20:35.030Z,7.30
2024-04-19T01:23:03.093Z,7.30
2024-04-19T01:25:36.001Z,7.29
2024-04-19T01:28:07.087Z,7.33
2024-04-19T01:30:35.188Z,7.37
2024-04-19T01:33:03.253Z,7.36
2024-04-19T01:35:31.020Z,7.31
2024-04-19T01:37:59.106Z,7.26
2024-04-19T01:40:26.778Z,7.23
2024-04-19T01:42:55.114Z,7.26
2024-04-19T01:45:23.224Z,7.31
2024-04-19T01:47:51.358Z,7.32
2024-04-19T01:50:19.236Z,7.29
2024-04-19T01:52:47.671Z,7.11
2024-04-19T01:55:17.617Z,6.96
2024-04-19T01:57:45.783Z,6.81
2024-04-19T02:00:14.668Z,6.72
2024-04-19T02:02:42.904Z,6.73
2024-04-19T02:05:11.184Z,6.64
2024-04-19T02:07:39.042Z,6.55
2024-04-19T02:10:09.007Z,6.47
2024-04-19T02:12:37.449Z,6.39
2024-04-19T02:15:07.028Z,6.38
2024-04-19T02:17:35.286Z,6.36
2024-04-19T02:20:04.418Z,6.38
2024-04-19T02:22:32.123Z,6.42
2024-04-19T02:24:59.910Z,6.41
2024-04-19T02:27:46.162Z,6.44
2024-04-19T02:30:32.831Z,6.44
2024-04-19T02:35:49.472Z,6.38
2024-04-19T02:38:17.672Z,6.37
2024-04-19T02:40:45.507Z,6.35
2024-04-19T02:43:13.304Z,6.30
2024-04-19T02:45:50.721Z,6.31
2024-04-19T02:48:24.063Z,6.20
2024-04-19T02:50:51.704Z,6.09
2024-04-19T02:53:19.714Z,6.01
2024-04-19T02:55:48.179Z,5.98
2024-04-19T02:58:16.374Z,5.99
2024-04-19T03:00:44.170Z,5.97
2024-04-19T03:03:12.495Z,5.87
2024-04-19T03:05:40.407Z,5.79
2024-04-19T03:08:08.713Z,5.72
2024-04-19T03:11:07.320Z,5.52
2024-04-19T03:13:35.396Z,5.35
2024-04-19T03:16:07.626Z,5.28
2024-04-19T03:18:35.343Z,5.30
2024-04-19T03:21:03.089Z,5.30
2024-04-19T03:23:31.480Z,5.38
2024-04-19T03:26:22.223Z,5.46
2024-04-19T03:28:52.421Z,5.56
2024-04-19T03:31:20.558Z,5.55
2024-04-19T03:33:48.347Z,5.52
2024-04-19T03:36:16.588Z,5.41
2024-04-19T03:38:47.015Z,5.35
2024-04-19T03:41:14.750Z,5.28
2024-04-19T03:43:53.368Z,5.15
2024-04-19T03:46:21.696Z,4.97
2024-04-19T03:48:50.321Z,4.87
2024-04-19T03:51:18.174Z,4.82
2024-04-19T03:53:46.169Z,4.88
2024-04-19T03:56:13.901Z,4.97
2024-04-19T03:58:41.610Z,5.03
2024-04-19T04:01:09.451Z,5.13
2024-04-19T04:03:37.579Z,5.17
2024-04-19T04:06:06.576Z,5.05
2024-04-19T04:08:34.998Z,4.80
2024-04-19T04:11:03.006Z,4.69
2024-04-19T04:13:31.135Z,4.77
2024-04-19T04:15:58.801Z,4.88
2024-04-19T04:18:27.083Z,5.00
2024-04-19T04:20:55.132Z,5.09
2024-04-19T04:23:23.377Z,5.01
2024-04-19T04:25:51.726Z,5.07
2024-04-19T04:28:20.157Z,5.16
2024-04-19T04:30:48.609Z,5.24
2024-04-19T04:33:16.179Z,5.25
2024-04-19T04:35:45.574Z,5.24
2024-04-19T04:38:14.176Z,5.26
2024-04-19T04:40:42.658Z,5.28
2024-04-19T04:43:10.723Z,5.36
2024-04-19T04:45:39.135Z,5.38
2024-04-19T04:48:09.760Z,5.45
2024-04-19T04:50:37.708Z,5.57
2024-04-19T04:53:05.994Z,5.65
2024-04-19T04:55:34.329Z,5.61
2024-04-19T04:58:01.766Z,5.61
2024-04-19T05:00:33.462Z,5.57
2024-04-19T05:03:01.618Z,5.62
2024-04-19T05:05:30.354Z,5.59
2024-04-19T05:07:58.872Z,5.61
2024-04-19T05:10:27.375Z,5.75
2024-04-19T05:12:55.413Z,5.87
2024-04-19T05:15:23.323Z,5.99
2024-04-19T05:17:51.570Z,6.10
2024-04-19T05:20:19.736Z,6.13
2024-04-19T05:22:47.920Z,6.20
2024-04-19T05:25:15.381Z,6.30
2024-04-19T05:27:44.964Z,6.46
2024-04-19T05:30:13.278Z,6.59
2024-04-19T05:32:41.122Z,6.73
2024-04-19T05:35:09.616Z,6.86
2024-04-19T05:37:38.354Z,6.91
2024-04-19T05:40:08.875Z,7.00
2024-04-19T05:42:37.349Z,7.16
2024-04-19T05:45:05.646Z,7.28
2024-04-19T05:47:33.676Z,7.36
2024-04-19T05:50:01.894Z,7.39
2024-04-19T05:52:29.962Z,7.41
2024-04-19T05:54:57.843Z,7.51
2024-04-19T05:57:26.367Z,7.63
2024-04-19T05:59:55.865Z,7.72
2024-04-19T06:02:23.979Z,7.80
2024-04-19T06:04:51.550Z,7.86
2024-04-19T06:07:22.606Z,7.97
2024-04-19T06:09:51.270Z,8.01
2024-04-19T06:12:20.065Z,8.02
2024-04-19T06:14:48.466Z,8.11
2024-04-19T06:17:17.323Z,8.13
2024-04-19T06:19:45.826Z,8.05
2024-04-19T06:22:14.122Z,8.15
2024-04-19T06:24:42.291Z,8.35
2024-04-19T06:27:10.429Z,8.51
2024-04-19T06:29:38.608Z,8.72
2024-04-19T06:32:08.724Z,8.77
2024-04-19T06:34:38.086Z,8.96
2024-04-19T06:37:05.862Z,9.09
2024-04-19T06:39:34.562Z,9.31
2024-04-19T06:42:02.713Z,9.54
2024-04-19T06:44:30.798Z,9.82
2024-04-19T06:46:58.610Z,10.04
2024-04-19T06:49:26.922Z,10.21
2024-04-19T06:51:55.265Z,10.32
2024-04-19T06:54:23.629Z,10.48
2024-04-19T06:56:51.843Z,10.53
2024-04-19T06:59:20.190Z,10.54
2024-04-19T07:01:48.814Z,10.26
2024-04-19T07:04:17.251Z,10.30
2024-04-19T07:06:46.959Z,10.36
2024-04-19T07:09:17.530Z,10.52
2024-04-19T07:11:46.904Z,10.68
2024-04-19T07:14:15.082Z,10.77
2024-04-19T07:16:43.959Z,10.89
2024-04-19T07:19:12.430Z,10.68
2024-04-19T07:21:41.076Z,10.77
2024-04-19T07:24:10.629Z,10.87
2024-04-19T07:26:40.169Z,11.08
2024-04-19T07:29:07.377Z,11.36
2024-04-19T07:31:36.252Z,11.55
2024-04-19T07:34:04.378Z,11.69
2024-04-19T07:36:32.884Z,11.75
2024-04-19T07:39:00.802Z,11.87
2024-04-19T07:41:29.509Z,11.91
2024-04-19T07:44:01.183Z,12.00
2024-04-19T07:46:30.339Z,12.17
2024-04-19T07:48:58.641Z,12.23
2024-04-19T07:51:26.631Z,12.46
2024-04-19T07:53:54.515Z,12.43
2024-04-19T07:56:22.790Z,12.59
2024-04-19T07:58:50.606Z,12.55
2024-04-19T08:01:19.096Z,12.48
2024-04-19T08:03:50.129Z,12.61
2024-04-19T08:06:18.630Z,12.81
2024-04-19T08:08:47.513Z,12.90
2024-04-19T08:11:15.765Z,12.77
2024-04-19T08:13:44.112Z,12.97
2024-04-19T08:16:12.397Z,12.88
2024-04-19T08:18:40.328Z,12.88
2024-04-19T08:21:08.431Z,12.95
2024-04-19T08:23:36.620Z,13.05
2024-04-19T08:26:04.593Z,13.05
2024-04-19T08:28:33.098Z,13.19
2024-04-19T08:31:01.886Z,13.12
2024-04-19T08:33:30.131Z,13.01
2024-04-19T08:35:58.261Z,13.17
2024-04-19T08:38:26.453Z,13.33
2024-04-19T08:40:58.339Z,13.46
2024-04-19T08:43:32.742Z,13.65
2024-04-19T08:46:02.897Z,13.61
2024-04-19T08:48:31.525Z,13.50
2024-04-19T08:51:03.537Z,13.61
2024-04-19T08:53:33.122Z,13.50
2024-04-19T08:56:01.243Z,13.37
2024-04-19T08:58:28.508Z,13.50
2024-04-19T09:00:56.693Z,13.60
2024-04-19T09:03:25.141Z,13.48
2024-04-19T09:05:53.425Z,13.68
2024-04-19T09:08:21.519Z,13.73
2024-04-19T09:10:53.008Z,13.71
2024-04-19T09:13:21.264Z,13.80
2024-04-19T09:15:49.314Z,13.78
2024-04-19T09:18:17.756Z,13.87
2024-04-19T09:20:49.225Z,13.74
2024-04-19T09:23:17.039Z,13.72
2024-04-19T09:25:44.948Z,13.84
2024-04-19T09:28:15.440Z,13.89
2024-04-19T09:30:44.434Z,13.93
2024-04-19T09:33:18.189Z,14.12
2024-04-19T09:35:46.404Z,14.17
2024-04-19T09:38:14.815Z,14.47
2024-04-19T09:40:42.828Z,14.45
2024-04-19T09:43:10.170Z,14.55
2024-04-19T09:45:44.965Z,14.48
2024-04-19T09:48:13.352Z,14.45
2024-04-19T09:50:41.142Z,14.58
2024-04-19T09:53:12.543Z,14.84
2024-04-19T09:56:02.879Z,14.88
2024-04-19T09:58:32.480Z,14.79
2024-04-19T10:01:00.417Z,14.88
2024-04-19T10:03:29.281Z,14.94
2024-04-19T10:05:58.063Z,15.19
2024-04-19T10:08:26.506Z,15.13
2024-04-19T10:10:54.886Z,14.70
2024-04-19T10:13:23.603Z,14.77
2024-04-19T10:15:51.357Z,14.90
2024-04-19T10:18:19.524Z,15.02
2024-04-19T10:20:46.831Z,15.06
2024-04-19T10:23:16.266Z,15.25
2024-04-19T10:25:43.696Z,15.19
2024-04-19T10:28:12.103Z,15.28
2024-04-19T10:30:42.842Z,15.34
2024-04-19T10:33:13.801Z,15.24
2024-04-19T10:36:05.576Z,15.18
2024-04-19T10:38:34.462Z,15.14
2024-04-19T10:41:02.223Z,15.22
2024-04-19T10:43:31.685Z,15.52
2024-04-19T10:46:02.766Z,15.62
2024-04-19T10:48:32.855Z,15.84
2024-04-19T10:51:04.016Z,15.60
2024-04-19T10:53:31.929Z,15.57
2024-04-19T10:56:00.014Z,15.82
2024-04-19T10:58:27.871Z,15.77
2024-04-19T11:00:56.360Z,15.86
2024-04-19T11:03:24.631Z,15.86
2024-04-19T11:05:51.603Z,15.81
2024-04-19T11:08:20.124Z,15.92
2024-04-19T11:10:47.095Z,15.97
2024-04-19T11:13:15.900Z,16.11
2024-04-19T11:15:48.756Z,16.05
2024-04-19T11:18:25.184Z,16.19
2024-04-19T11:21:00.869Z,16.27
2024-04-19T11:23:36.137Z,16.53
2024-04-19T11:26:03.866Z,16.57
2024-04-19T11:28:31.946Z,16.64
2024-04-19T11:31:01.367Z,16.64
2024-04-19T11:33:29.093Z,16.86
2024-04-19T11:35:57.279Z,16.73
2024-04-19T11:38:25.428Z,16.78
2024-04-19T11:40:54.287Z,17.11
2024-04-19T11:43:22.123Z,17.33
2024-04-19T11:45:50.038Z,17.52
2024-04-19T11:48:27.675Z,17.83
2024-04-19T11:50:56.822Z,18.22
2024-04-19T11:53:24.847Z,18.24
2024-04-19T11:55:54.343Z,18.44
2024-04-19T11:58:22.895Z,18.80
2024-04-19T12:00:52.003Z,18.93
2024-04-19T12:03:20.247Z,18.93
2024-04-19T12:05:48.049Z,19.59
2024-04-19T12:08:16.273Z,19.65
2024-04-19T12:10:44.196Z,20.11
2024-04-19T12:13:51.038Z,20.58
2024-04-19T12:16:31.831Z,20.88
2024-04-19T12:18:48.237Z,21.40
2024-04-19T12:21:17.153Z,21.54
2024-04-19T12:23:47.456Z,21.63
2024-04-19T12:26:19.099Z,21.67
2024-04-19T12:28:54.340Z,21.66
2024-04-19T12:31:24.767Z,21.30
2024-04-19T12:33:53.262Z,21.15
2024-04-19T12:36:21.161Z,21.32
2024-04-19T12:38:51.101Z,21.57
2024-04-19T12:41:19.028Z,22.22
2024-04-19T12:43:46.247Z,22.32
2024-04-19T12:46:14.057Z,22.30
2024-04-19T12:48:43.233Z,21.96
2024-04-19T12:51:11.453Z,22.50
2024-04-19T12:53:39.524Z,23.25
2024-04-19T12:56:08.920Z,23.28
2024-04-19T12:58:38.119Z,23.64
2024-04-19T13:01:07.151Z,24.00
2024-04-19T13:03:35.854Z,24.04
2024-04-19T13:06:03.891Z,22.77
2024-04-19T13:08:31.662Z,22.93
2024-04-19T13:11:02.073Z,22.30
2024-04-19T13:13:30.457Z,22.12
2024-04-19T13:15:58.411Z,22.55
2024-04-19T13:18:26.577Z,23.28
2024-04-19T13:20:55.183Z,23.50
2024-04-19T13:23:24.407Z,23.48
2024-04-19T13:25:52.685Z,23.60
2024-04-19T13:28:20.783Z,23.43
2024-04-19T13:30:52.042Z,23.52
2024-04-19T13:33:21.174Z,23.72
2024-04-19T13:35:49.354Z,23.56
2024-04-19T13:38:17.813Z,23.34
2024-04-19T13:40:45.737Z,23.18
2024-04-19T13:43:16.723Z,22.84
2024-04-19T13:45:45.087Z,22.09
2024-04-19T13:48:13.270Z,21.67
2024-04-19T13:50:41.432Z,21.66
2024-04-19T13:53:09.865Z,21.78
2024-04-19T13:55:38.032Z,22.28
2024-04-19T13:58:07.757Z,23.02
2024-04-19T14:00:36.006Z,23.44
2024-04-19T14:03:04.924Z,24.30
2024-04-19T14:05:32.909Z,24.92
2024-04-19T14:08:01.373Z,25.61
2024-04-19T14:10:29.708Z,25.59
2024-04-19T14:12:59.569Z,25.08
2024-04-19T14:15:27.944Z,25.38
2024-04-19T14:17:56.727Z,25.53
2024-04-19T14:20:25.162Z,25.26
2024-04-19T14:22:53.908Z,25.06
2024-04-19T14:25:21.656Z,25.19
2024-04-19T14:27:50.597Z,25.49
2024-04-19T14:30:18.929Z,25.88
2024-04-19T14:32:46.651Z,26.51
2024-04-19T14:35:15.706Z,26.84
2024-04-19T14:37:43.923Z,26.45
2024-04-19T14:40:15.657Z,26.26
2024-04-19T14:42:43.324Z,26.44
2024-04-19T14:45:11.650Z,26.49
2024-04-19T14:47:39.178Z,26.73
2024-04-19T14:50:08.856Z,26.68
2024-04-19T14:52:36.836Z,26.57
2024-04-19T14:55:06.139Z,26.05
2024-04-19T14:57:34.472Z,25.81
2024-04-19T15:00:02.534Z,25.07
2024-04-19T15:02:30.631Z,24.21
2024-04-19T15:04:58.847Z,24.04
2024-04-19T15:07:27.263Z,24.29
2024-04-19T15:09:55.206Z,23.81
2024-04-19T15:12:23.573Z,23.62
2024-04-19T15:14:52.132Z,23.31
2024-04-19T15:17:20.494Z,23.27
2024-04-19T15:19:48.547Z,24.00
2024-04-19T15:22:17.057Z,25.03
2024-04-19T15:24:45.140Z,25.67
2024-04-19T15:27:12.882Z,26.44
2024-04-19T15:29:41.454Z,26.31
2024-04-19T15:32:09.813Z,25.62
2024-04-19T15:34:47.068Z,25.02
2024-04-19T15:37:16.437Z,24.82
2024-04-19T15:39:49.163Z,24.04
2024-04-19T15:42:17.325Z,23.25
2024-04-19T15:44:46.041Z,22.51
2024-04-19T15:47:14.485Z,21.56
2024-04-19T15:49:44.508Z,21.17
2024-04-19T15:52:13.028Z,21.04
2024-04-19T15:54:41.267Z,20.62
2024-04-19T15:57:09.308Z,20.46
2024-04-19T15:59:37.588Z,20.44
2024-04-19T16:02:06.328Z,20.29
2024-04-19T16:04:34.613Z,20.42
2024-04-19T16:07:02.969Z,20.73
2024-04-19T16:09:30.788Z,20.89
2024-04-19T16:11:59.768Z,21.05
2024-04-19T16:14:27.897Z,21.26
2024-04-19T16:16:56.454Z,21.58
2024-04-19T16:19:24.877Z,22.57
2024-04-19T16:21:52.686Z,24.24
2024-04-19T16:24:20.856Z,25.71
2024-04-19T16:26:48.975Z,27.07
2024-04-19T16:29:16.802Z,27.71
2024-04-19T16:31:44.923Z,27.62
2024-04-19T16:34:13.180Z,26.64
2024-04-19T16:36:42.360Z,25.93
2024-04-19T16:39:10.261Z,25.04
2024-04-19T16:41:38.645Z,23.75
2024-04-19T16:44:06.769Z,22.86
2024-04-19T16:46:34.238Z,22.28
2024-04-19T16:49:02.532Z,21.63
2024-04-19T16:51:30.096Z,21.18
2024-04-19T16:53:57.837Z,20.88
2024-04-19T16:56:26.793Z,20.49
2024-04-19T16:58:55.661Z,20.23
2024-04-19T17:01:23.733Z,19.96
2024-04-19T17:03:52.429Z,19.75
2024-04-19T17:06:20.340Z,19.62
2024-04-19T17:08:48.618Z,19.59
2024-04-19T17:11:16.548Z,19.56
2024-04-19T17:13:44.586Z,19.45
2024-04-19T17:16:12.639Z,19.37
2024-04-19T17:18:40.711Z,19.20
2024-04-19T17:21:09.137Z,19.14
2024-04-19T17:23:37.396Z,19.05
2024-04-19T17:26:05.944Z,18.98
2024-04-19T17:28:34.118Z,18.86
2024-04-19T17:31:08.694Z,18.77
2024-04-19T17:33:37.426Z,18.78
2024-04-19T17:36:06.097Z,18.76
2024-04-19T17:38:34.458Z,18.73
2024-04-19T17:41:04.453Z,18.69
2024-04-19T17:43:32.535Z,18.65
2024-04-19T17:46:00.701Z,18.65
2024-04-19T17:48:29.385Z,18.56
2024-04-19T17:50:57.973Z,18.35
2024-04-19T17:53:27.257Z,18.12
2024-04-19T17:55:55.244Z,17.91
2024-04-19T17:58:23.471Z,17.71
2024-04-19T18:00:53.893Z,17.50
2024-04-19T18:03:22.628Z,17.28
2024-04-19T18:05:50.630Z,17.07
2024-04-19T18:08:18.689Z,16.92
2024-04-19T18:10:46.505Z,16.75
2024-04-19T18:13:14.760Z,16.64
2024-04-19T18:15:43.093Z,16.55
2024-04-19T18:18:10.810Z,16.51
2024-04-19T18:20:40.853Z,16.43
2024-04-19T18:23:08.603Z,16.32
2024-04-19T18:25:36.720Z,16.23
2024-04-19T18:28:05.180Z,16.14
2024-04-19T18:30:33.839Z,16.05
2024-04-19T18:33:05.130Z,15.95
2024-04-19T18:35:34.630Z,15.78
2024-04-19T18:38:02.822Z,15.68
2024-04-19T18:40:31.372Z,15.59
2024-04-19T18:42:59.171Z,15.54
2024-04-19T18:45:27.144Z,15.47
2024-04-19T18:47:55.112Z,15.39
2024-04-19T18:50:24.294Z,15.35
2024-04-19T18:52:52.234Z,15.29
2024-04-19T18:55:20.883Z,15.20
2024-04-19T18:57:51.018Z,15.08
2024-04-19T19:00:19.341Z,14.98
2024-04-19T19:02:47.131Z,14.95
2024-04-19T19:05:16.362Z,14.93
2024-04-19T19:07:44.007Z,14.90
2024-04-19T19:10:14.920Z,14.91
2024-04-19T19:12:46.995Z,14.91
2024-04-19T19:15:16.462Z,14.86
2024-04-19T19:17:44.284Z,14.77
2024-04-19T19:20:13.574Z,14.67
2024-04-19T19:22:41.356Z,14.63
2024-04-19T19:25:09.048Z,14.65
2024-04-19T19:27:36.283Z,14.55
2024-04-19T19:30:06.218Z,14.47
2024-04-19T19:32:34.333Z,14.37
2024-04-19T19:35:03.170Z,14.25
2024-04-19T19:37:31.435Z,14.15
2024-04-19T19:40:02.122Z,14.01
2024-04-19T19:42:30.252Z,13.91
2024-04-19T19:44:58.311Z,13.76
2024-04-19T19:47:26.684Z,13.60
2024-04-19T19:50:04.790Z,13.44
2024-04-19T19:52:32.351Z,13.29
2024-04-19T19:55:02.478Z,13.18
2024-04-19T19:57:30.508Z,13.16
2024-04-19T20:00:17.390Z,13.13
2024-04-19T20:03:04.033Z,13.13
2024-04-19T20:05:46.757Z,13.12
2024-04-19T20:08:14.305Z,13.07
2024-04-19T20:10:43.186Z,13.02
2024-04-19T20:13:11.832Z,13.04
2024-04-19T20:15:39.424Z,13.06
2024-04-19T20:18:08.780Z,12.99
2024-04-19T20:20:37.585Z,12.99
2024-04-19T20:23:06.377Z,12.77
2024-04-19T20:25:34.842Z,12.64
2024-04-19T20:28:03.821Z,12.64
2024-04-19T20:30:31.641Z,12.68
2024-04-19T20:32:59.751Z,12.73
2024-04-19T20:35:27.483Z,12.72
2024-04-19T20:37:55.192Z,12.70
2024-04-19T20:40:24.126Z,12.72
2024-04-19T20:43:03.026Z,12.71
2024-04-19T20:45:39.075Z,12.69
2024-04-19T20:48:09.366Z,12.65
2024-04-19T20:50:37.518Z,12.60
2024-04-19T20:53:06.159Z,12.57
2024-04-19T20:55:34.172Z,12.48
2024-04-19T20:58:02.138Z,12.43
2024-04-19T21:00:32.921Z,12.40
2024-04-19T21:03:02.515Z,12.35
2024-04-19T21:05:29.991Z,12.20
2024-04-19T21:07:58.851Z,11.91
2024-04-19T21:10:27.086Z,11.80
2024-04-19T21:12:55.418Z,11.78
2024-04-19T21:15:23.566Z,11.86
2024-04-19T21:17:51.628Z,12.01
2024-04-19T21:20:19.429Z,12.08
2024-04-19T21:22:47.370Z,12.12
2024-04-19T21:25:15.189Z,12.10
2024-04-19T21:27:43.507Z,12.06
2024-04-19T21:30:13.453Z,12.02
2024-04-19T21:32:41.798Z,11.98
2024-04-19T21:35:09.800Z,11.90
2024-04-19T21:37:37.811Z,11.68
2024-04-19T21:40:10.771Z,11.56
2024-04-19T21:42:39.638Z,11.50
2024-04-19T21:45:07.678Z,11.38
2024-04-19T21:47:35.508Z,11.24
2024-04-19T21:50:04.078Z,11.06
2024-04-19T21:52:31.387Z,11.11
2024-04-19T21:54:59.488Z,11.16
2024-04-19T21:57:27.376Z,11.30
2024-04-19T21:59:56.238Z,11.41
2024-04-19T22:02:24.521Z,11.43
2024-04-19T22:04:52.749Z,11.44
2024-04-19T22:07:20.501Z,11.44
2024-04-19T22:09:49.079Z,11.49
2024-04-19T22:12:19.139Z,11.53
2024-04-19T22:14:47.780Z,11.62
2024-04-19T22:17:15.707Z,11.66
2024-04-19T22:19:43.506Z,11.67
2024-04-19T22:22:14.460Z,11.66
2024-04-19T22:24:43.386Z,11.64
2024-04-19T22:27:11.338Z,11.67
2024-04-19T22:29:41.014Z,11.59
2024-04-19T22:32:31.422Z,11.56
2024-04-19T22:34:59.251Z,11.58
2024-04-19T22:37:27.355Z,11.57
2024-04-19T22:39:55.025Z,11.53
2024-04-19T22:42:23.240Z,11.51
2024-04-19T22:44:51.212Z,11.52
2024-04-19T22:47:20.205Z,11.47
2024-04-19T22:49:48.302Z,11.50
2024-04-19T22:52:16.944Z,11.50
2024-04-19T22:54:45.548Z,11.52
2024-04-19T22:57:13.998Z,11.39
2024-04-19T22:59:41.979Z,11.34
2024-04-19T23:02:09.872Z,11.31
2024-04-19T23:04:38.283Z,11.05
2024-04-19T23:07:07.384Z,10.86
2024-04-19T23:09:35.250Z,10.79
2024-04-19T23:12:02.550Z,10.78
2024-04-19T23:14:30.390Z,10.81
2024-04-19T23:16:58.508Z,10.78
2024-04-19T23:19:27.024Z,10.70
2024-04-19T23:21:55.576Z,10.69
2024-04-19T23:24:23.870Z,10.74
2024-04-19T23:26:51.796Z,10.74
2024-04-19T23:29:19.885Z,10.74
2024-04-19T23:31:48.037Z,10.68
2024-04-19T23:34:16.424Z,10.65
2024-04-19T23:36:44.474Z,10.65
2024-04-19T23:39:12.389Z,10.69
2024-04-19T23:41:41.059Z,10.63
2024-04-19T23:44:09.366Z,10.57
2024-04-19T23:46:36.843Z,10.53
2024-04-19T23:49:04.723Z,10.53
2024-04-19T23:51:36.272Z,10.49
2024-04-19T23:54:09.685Z,10.48
2024-04-19T23:56:37.737Z,10.50
2024-04-19T23:59:05.755Z,10.50
